Time;durP1;ratioP1;P1;durP2;ratioP2;P2;SDS_P1;SDS_P2;PMS_P1;PMS_P2;Temp;Humidity;BMP_temperature;BMP_pressure;BME280_temperature;BME280_humidity;BME280_pressure;Samples;Min_cycle;Max_cycle;Signal;HPM_P1;HPM_P2
2023/07/30 00:01:33;;;;;;;33.30;6.82;;;15.60;99.90;;;;;;5008902;28;20037;-85
2023/07/30 00:03:59;;;;;;;25.90;6.18;;;15.60;99.90;;;;;;5027077;28;20501;-86
2023/07/30 00:06:25;;;;;;;23.73;5.45;;;15.60;99.90;;;;;;4992019;28;20143;-86
2023/07/30 00:08:51;;;;;;;31.92;6.43;;;15.70;99.90;;;;;;5008887;28;20564;-86
2023/07/30 00:11:17;;;;;;;21.50;5.85;;;15.70;99.90;;;;;;4992836;28;20041;-85
2023/07/30 00:13:42;;;;;;;24.10;6.25;;;15.70;99.90;;;;;;5010173;28;20498;-86
2023/07/30 00:16:08;;;;;;;29.45;6.85;;;15.70;99.90;;;;;;5030675;28;20137;-86
2023/07/30 00:18:34;;;;;;;26.45;6.80;;;15.70;99.90;;;;;;4996006;28;20058;-86
2023/07/30 00:21:00;;;;;;;36.13;8.60;;;15.70;99.90;;;;;;4995985;28;20094;-87
2023/07/30 00:23:25;;;;;;;34.53;9.70;;;15.70;99.90;;;;;;5013293;28;20072;-86
2023/07/30 00:25:51;;;;;;;25.95;8.15;;;15.70;99.90;;;;;;4996022;28;20390;-86
2023/07/30 00:28:17;;;;;;;31.40;9.48;;;15.60;99.90;;;;;;4996777;28;20129;-86
2023/07/30 00:30:42;;;;;;;33.92;8.63;;;15.70;99.90;;;;;;4995030;28;20669;-85
2023/07/30 00:33:08;;;;;;;31.15;8.95;;;15.60;99.90;;;;;;4999007;28;20052;-86
2023/07/30 00:35:36;;;;;;;30.38;8.75;;;15.60;99.90;;;;;;5006501;28;20034;-86
2023/07/30 00:38:02;;;;;;;33.63;8.70;;;15.60;99.90;;;;;;4996402;28;20041;-86
2023/07/30 00:40:28;;;;;;;33.92;8.32;;;15.60;99.90;;;;;;5012279;28;20511;-86
2023/07/30 00:42:53;;;;;;;29.27;7.60;;;15.60;99.90;;;;;;4999131;28;20175;-87
2023/07/30 00:45:19;;;;;;;27.95;7.05;;;15.60;99.90;;;;;;5031937;28;20045;-86
2023/07/30 00:47:45;;;;;;;29.17;7.03;;;15.60;99.90;;;;;;5029840;28;20056;-86
2023/07/30 00:50:14;;;;;;;28.10;6.30;;;15.60;99.90;;;;;;4996351;28;20050;-86
2023/07/30 00:52:40;;;;;;;29.08;7.50;;;15.60;99.90;;;;;;5011787;28;20095;-86
2023/07/30 00:55:07;;;;;;;24.08;7.00;;;15.60;99.90;;;;;;5020781;28;20041;-86
2023/07/30 00:57:36;;;;;;;36.95;8.45;;;15.60;99.90;;;;;;5024572;28;20053;-86
2023/07/30 01:00:04;;;;;;;33.47;8.75;;;15.60;99.90;;;;;;5011942;28;20045;-86
2023/07/30 01:02:31;;;;;;;33.90;9.43;;;15.50;99.90;;;;;;5010799;28;20049;-86
2023/07/30 01:04:57;;;;;;;30.35;9.25;;;15.60;99.90;;;;;;5011893;28;20049;-86
2023/07/30 01:07:23;;;;;;;25.77;8.30;;;15.60;99.90;;;;;;5028511;28;20049;-86
2023/07/30 01:09:49;;;;;;;28.63;7.63;;;15.50;99.90;;;;;;5011358;28;20053;-86
2023/07/30 01:12:15;;;;;;;33.38;7.32;;;15.50;99.90;;;;;;4995869;28;20033;-86
2023/07/30 01:14:42;;;;;;;35.92;6.97;;;15.50;99.90;;;;;;4995696;28;20406;-86
2023/07/30 01:17:08;;;;;;;24.02;7.03;;;15.60;99.90;;;;;;5010101;28;20497;-86
2023/07/30 01:19:34;;;;;;;25.65;6.68;;;15.60;99.90;;;;;;5012262;28;20271;-86
2023/07/30 01:21:59;;;;;;;27.75;6.93;;;15.60;99.90;;;;;;5011385;28;20033;-86
2023/07/30 01:24:25;;;;;;;25.73;6.95;;;15.60;99.90;;;;;;4993484;28;20053;-85
2023/07/30 01:27:03;;;;;;;23.58;6.93;;;15.60;99.90;;;;;;5011743;28;20049;-86
2023/07/30 01:29:40;;;;;;;25.38;7.80;;;15.60;99.90;;;;;;5011515;28;20539;-86
2023/07/30 01:32:10;;;;;;;25.33;6.80;;;15.60;99.90;;;;;;5015718;28;20052;-86
2023/07/30 01:34:37;;;;;;;25.90;7.05;;;15.70;99.90;;;;;;5027894;28;20390;-85
2023/07/30 01:37:09;;;;;;;26.75;7.35;;;15.70;99.90;;;;;;5011682;28;20054;-86
2023/07/30 01:39:38;;;;;;;26.30;7.88;;;15.70;99.90;;;;;;5011071;28;20417;-86
2023/07/30 01:42:04;;;;;;;26.88;6.68;;;15.70;99.90;;;;;;5021249;28;20135;-86
2023/07/30 01:44:29;;;;;;;26.50;7.35;;;15.70;99.90;;;;;;5013268;28;20041;-86
2023/07/30 01:46:55;;;;;;;28.17;6.93;;;15.80;99.90;;;;;;4994553;28;20046;-86
2023/07/30 01:49:21;;;;;;;28.15;7.03;;;15.70;99.90;;;;;;5011622;28;20088;-86
2023/07/30 01:51:46;;;;;;;28.55;7.43;;;15.80;99.90;;;;;;4994012;28;20045;-86
2023/07/30 01:54:12;;;;;;;28.60;6.82;;;15.80;99.90;;;;;;4995271;28;20050;-86
2023/07/30 01:56:39;;;;;;;33.58;7.68;;;15.80;99.90;;;;;;4994072;28;20176;-85
2023/07/30 01:59:05;;;;;;;25.30;6.47;;;15.80;99.90;;;;;;4994301;28;20041;-86
2023/07/30 02:01:30;;;;;;;36.17;6.82;;;15.80;99.90;;;;;;5011458;28;20057;-86
2023/07/30 02:03:56;;;;;;;31.77;6.30;;;15.80;99.90;;;;;;4995300;28;20152;-86
2023/07/30 02:06:22;;;;;;;26.63;6.57;;;15.90;99.90;;;;;;5010329;28;20049;-86
2023/07/30 02:08:47;;;;;;;36.75;6.80;;;15.90;99.90;;;;;;5024704;28;20052;-86
2023/07/30 02:11:13;;;;;;;32.08;6.72;;;15.90;99.90;;;;;;5020765;28;20126;-86
2023/07/30 02:13:39;;;;;;;35.58;6.93;;;15.90;99.90;;;;;;5010083;28;20041;-86
2023/07/30 02:16:04;;;;;;;33.95;6.63;;;15.90;99.90;;;;;;5027604;28;20080;-86
2023/07/30 02:18:30;;;;;;;41.38;7.05;;;16.00;99.90;;;;;;4994764;28;20134;-86
2023/07/30 02:20:56;;;;;;;27.95;6.55;;;16.00;99.90;;;;;;5010604;28;20046;-86
2023/07/30 02:23:21;;;;;;;27.00;7.15;;;16.00;99.90;;;;;;4994446;28;20041;-86
2023/07/30 02:25:47;;;;;;;33.35;6.93;;;16.00;99.90;;;;;;5009893;28;20553;-86
2023/07/30 02:28:13;;;;;;;38.72;7.47;;;16.00;99.90;;;;;;5010575;28;20041;-86
2023/07/30 02:30:39;;;;;;;29.95;6.72;;;16.10;99.90;;;;;;5010386;28;20049;-86
2023/07/30 02:33:04;;;;;;;32.30;6.70;;;16.10;99.90;;;;;;5009795;28;20172;-86
2023/07/30 02:35:30;;;;;;;31.13;7.25;;;16.10;99.90;;;;;;5010192;28;20399;-86
2023/07/30 02:37:56;;;;;;;31.73;7.75;;;16.10;99.90;;;;;;5010552;28;20042;-86
2023/07/30 02:40:21;;;;;;;33.92;6.75;;;16.10;99.90;;;;;;5010089;28;20516;-86
2023/07/30 02:42:47;;;;;;;30.50;6.70;;;16.10;99.90;;;;;;5010749;28;20495;-86
2023/07/30 02:45:13;;;;;;;33.58;6.43;;;16.10;99.90;;;;;;5011145;28;20095;-86
2023/07/30 02:47:39;;;;;;;33.72;5.63;;;16.10;99.90;;;;;;4991834;28;20470;-86
2023/07/30 02:50:05;;;;;;;36.38;6.28;;;16.00;99.90;;;;;;4994554;28;20095;-86
2023/07/30 02:52:31;;;;;;;31.92;6.15;;;16.00;99.90;;;;;;4993038;28;20037;-86
2023/07/30 02:54:57;;;;;;;28.55;6.25;;;16.00;99.90;;;;;;5009600;28;20115;-86
2023/07/30 02:57:23;;;;;;;26.80;5.20;;;15.90;99.90;;;;;;5009984;28;20081;-86
2023/07/30 02:59:49;;;;;;;27.98;5.80;;;15.90;99.90;;;;;;4993954;28;20045;-86
2023/07/30 03:02:14;;;;;;;25.45;5.57;;;15.90;99.90;;;;;;5024842;28;20409;-86
2023/07/30 03:04:40;;;;;;;28.40;5.57;;;15.80;99.90;;;;;;5009462;28;20462;-87
2023/07/30 03:07:06;;;;;;;27.90;6.05;;;15.80;99.90;;;;;;5027418;28;20048;-86
2023/07/30 03:09:32;;;;;;;31.42;6.22;;;15.70;99.90;;;;;;5001614;28;20496;-86
2023/07/30 03:11:58;;;;;;;28.60;5.80;;;15.80;99.90;;;;;;5012711;28;20475;-86
2023/07/30 03:14:25;;;;;;;35.80;5.60;;;15.70;99.90;;;;;;4993641;28;20424;-86
2023/07/30 03:16:50;;;;;;;33.38;5.78;;;15.70;99.90;;;;;;4991250;28;20072;-86
2023/07/30 03:19:16;;;;;;;36.63;5.97;;;15.60;99.90;;;;;;5011272;28;20061;-87
2023/07/30 03:21:42;;;;;;;29.48;5.50;;;15.60;99.90;;;;;;4992321;28;20535;-86
2023/07/30 03:24:07;;;;;;;24.60;5.78;;;15.60;99.90;;;;;;5026612;28;20115;-86
2023/07/30 03:26:33;;;;;;;29.10;6.30;;;15.50;99.90;;;;;;4991922;28;20520;-86
2023/07/30 03:28:59;;;;;;;30.17;5.82;;;15.50;99.90;;;;;;5008546;28;20080;-86
2023/07/30 03:31:25;;;;;;;26.52;5.88;;;15.40;99.90;;;;;;5008656;28;20477;-87
2023/07/30 03:33:51;;;;;;;34.38;6.03;;;15.40;99.90;;;;;;5009922;28;20486;-86
2023/07/30 03:36:17;;;;;;;32.67;5.95;;;15.40;99.90;;;;;;4996804;28;20049;-86
2023/07/30 03:38:43;;;;;;;29.55;5.65;;;15.30;99.90;;;;;;4992802;28;20045;-85
2023/07/30 03:41:10;;;;;;;29.42;5.95;;;15.30;99.90;;;;;;5009103;28;20115;-86
2023/07/30 03:43:36;;;;;;;33.70;6.00;;;15.30;99.90;;;;;;4992726;28;20043;-87
2023/07/30 03:46:02;;;;;;;30.48;6.50;;;15.30;99.90;;;;;;5008309;28;20715;-85
2023/07/30 03:48:28;;;;;;;23.85;5.57;;;15.30;99.90;;;;;;5008823;28;20048;-87
2023/07/30 03:50:55;;;;;;;31.75;5.82;;;15.30;99.90;;;;;;5026618;28;20530;-86
2023/07/30 03:53:21;;;;;;;29.75;5.45;;;15.30;99.90;;;;;;5025670;28;20041;-86
2023/07/30 03:55:47;;;;;;;22.35;5.97;;;15.30;99.90;;;;;;5009140;28;20128;-86
2023/07/30 03:58:13;;;;;;;32.92;5.72;;;15.20;99.90;;;;;;5008442;28;20132;-87
2023/07/30 04:00:39;;;;;;;25.42;5.93;;;15.20;99.90;;;;;;5008684;28;20049;-85
2023/07/30 04:03:05;;;;;;;32.67;6.03;;;15.20;99.90;;;;;;4992868;28;20042;-86
2023/07/30 04:05:30;;;;;;;29.85;6.57;;;15.20;99.90;;;;;;4991451;28;20053;-86
2023/07/30 04:07:56;;;;;;;33.33;7.07;;;15.20;99.90;;;;;;4992667;28;20041;-86
2023/07/30 04:10:22;;;;;;;31.67;7.75;;;15.20;99.90;;;;;;5009371;28;20095;-85
2023/07/30 04:12:48;;;;;;;34.15;6.18;;;15.20;99.90;;;;;;5008361;28;20125;-86
2023/07/30 04:15:15;;;;;;;32.97;6.35;;;15.20;99.90;;;;;;5008612;28;20180;-86
2023/07/30 04:17:41;;;;;;;27.67;6.03;;;15.20;99.90;;;;;;5006870;28;20081;-85
2023/07/30 04:20:09;;;;;;;26.73;6.13;;;15.20;99.90;;;;;;5008884;28;20246;-85
2023/07/30 04:22:35;;;;;;;29.08;6.50;;;15.20;99.90;;;;;;5008514;28;20038;-86
2023/07/30 04:25:01;;;;;;;37.15;6.43;;;15.30;99.90;;;;;;5007764;28;20049;-87
2023/07/30 04:27:27;;;;;;;28.55;5.80;;;15.30;99.90;;;;;;5008411;28;20053;-86
2023/07/30 04:29:52;;;;;;;26.58;5.32;;;15.30;99.90;;;;;;5008970;28;20046;-86
2023/07/30 04:32:18;;;;;;;27.35;5.70;;;15.30;99.90;;;;;;5025668;28;20409;-86
2023/07/30 04:34:44;;;;;;;24.00;5.75;;;15.30;99.90;;;;;;5020961;28;20061;-86
2023/07/30 04:37:09;;;;;;;29.00;5.13;;;15.30;99.90;;;;;;4992971;28;20048;-87
2023/07/30 04:39:36;;;;;;;25.73;5.50;;;15.30;99.90;;;;;;5008215;28;20049;-86
2023/07/30 04:42:02;;;;;;;25.80;5.55;;;15.30;99.90;;;;;;5008390;28;20050;-86
2023/07/30 04:44:28;;;;;;;26.77;6.40;;;15.30;99.90;;;;;;5025326;28;20045;-87
2023/07/30 04:46:54;;;;;;;24.75;5.30;;;15.40;99.90;;;;;;5006988;28;20052;-86
2023/07/30 04:49:20;;;;;;;25.23;5.72;;;15.40;99.90;;;;;;5001076;28;20550;-86
2023/07/30 04:51:46;;;;;;;30.63;6.10;;;15.40;99.90;;;;;;5018721;28;20127;-85
2023/07/30 04:54:11;;;;;;;27.08;5.82;;;15.50;99.90;;;;;;4991720;28;20084;-86
2023/07/30 04:56:37;;;;;;;22.05;5.15;;;15.50;99.90;;;;;;4992292;28;20405;-86
2023/07/30 04:59:03;;;;;;;21.98;5.80;;;15.60;99.90;;;;;;5037573;28;20410;-87
2023/07/30 05:01:30;;;;;;;21.95;5.47;;;15.70;99.90;;;;;;5018219;28;20033;-86
2023/07/30 05:03:56;;;;;;;20.90;4.93;;;15.80;99.90;;;;;;4995514;28;20432;-86
2023/07/30 05:06:23;;;;;;;28.45;6.20;;;15.90;99.90;;;;;;4996405;28;20049;-87
2023/07/30 05:08:48;;;;;;;22.30;4.95;;;15.90;99.90;;;;;;4995039;28;20619;-86
2023/07/30 05:11:14;;;;;;;24.25;5.03;;;15.90;99.90;;;;;;5020486;28;20124;-86
2023/07/30 05:13:40;;;;;;;23.65;4.43;;;15.90;99.90;;;;;;5032051;28;20037;-86
2023/07/30 05:16:06;;;;;;;27.75;4.85;;;15.90;99.90;;;;;;5016934;28;20446;-87
2023/07/30 05:18:32;;;;;;;21.75;4.85;;;15.90;99.90;;;;;;5016125;28;20991;-86
2023/07/30 05:20:58;;;;;;;22.27;4.80;;;16.00;99.90;;;;;;5011733;28;20041;-86
2023/07/30 05:23:23;;;;;;;31.92;6.20;;;16.00;99.90;;;;;;5027452;28;20095;-85
2023/07/30 05:25:49;;;;;;;22.55;5.07;;;16.00;99.90;;;;;;5011453;28;20585;-86
2023/07/30 05:28:15;;;;;;;23.55;4.28;;;16.10;99.90;;;;;;5020607;28;20056;-86
2023/07/30 05:30:41;;;;;;;22.98;4.95;;;16.10;99.90;;;;;;5020797;28;20049;-87
2023/07/30 05:33:06;;;;;;;21.63;5.00;;;16.20;99.90;;;;;;5012249;28;20037;-87
2023/07/30 05:35:32;;;;;;;22.88;5.00;;;16.20;99.90;;;;;;5010966;28;20041;-86
2023/07/30 05:37:58;;;;;;;21.90;4.32;;;16.20;99.90;;;;;;4995182;28;20076;-87
2023/07/30 05:40:24;;;;;;;21.33;4.05;;;16.30;99.90;;;;;;4998306;28;20041;-87
2023/07/30 05:42:49;;;;;;;20.63;4.70;;;16.30;99.90;;;;;;5024032;28;20045;-87
2023/07/30 05:45:15;;;;;;;26.17;4.32;;;16.40;99.90;;;;;;5012313;28;20072;-87
2023/07/30 05:47:41;;;;;;;22.98;4.07;;;16.40;99.90;;;;;;5006676;28;20501;-86
2023/07/30 05:50:07;;;;;;;16.88;3.67;;;16.50;99.90;;;;;;4995031;28;20136;-86
2023/07/30 05:52:33;;;;;;;21.38;3.83;;;16.60;99.90;;;;;;5021466;28;20466;-87
2023/07/30 05:54:59;;;;;;;18.70;4.40;;;16.70;99.90;;;;;;4995508;28;20037;-87
2023/07/30 05:57:25;;;;;;;21.13;3.80;;;16.70;99.90;;;;;;4993952;28;20502;-87
2023/07/30 05:59:51;;;;;;;21.10;3.95;;;16.80;99.90;;;;;;5011318;28;20132;-87
2023/07/30 06:02:17;;;;;;;18.88;3.95;;;16.80;99.90;;;;;;5023949;28;20052;-87
2023/07/30 06:04:42;;;;;;;23.13;3.60;;;16.80;99.90;;;;;;4993288;28;20465;-87
2023/07/30 06:07:08;;;;;;;19.80;4.22;;;16.80;99.90;;;;;;4999167;28;20083;-88
2023/07/30 06:09:34;;;;;;;21.05;4.30;;;16.90;99.90;;;;;;5014894;28;20051;-87
2023/07/30 06:12:00;;;;;;;23.25;4.10;;;16.90;99.90;;;;;;5009399;28;20044;-87
2023/07/30 06:14:26;;;;;;;21.70;3.75;;;16.90;99.90;;;;;;4995041;28;20049;-87
2023/07/30 06:16:53;;;;;;;19.60;4.03;;;17.00;99.90;;;;;;5005867;28;20090;-87
2023/07/30 06:19:19;;;;;;;18.45;3.80;;;17.00;99.90;;;;;;5010604;28;20573;-87
2023/07/30 06:21:45;;;;;;;20.98;4.28;;;17.10;99.90;;;;;;5010262;28;20053;-87
2023/07/30 06:24:11;;;;;;;23.27;4.40;;;17.10;99.90;;;;;;5011110;28;20049;-87
2023/07/30 06:26:36;;;;;;;18.85;3.85;;;17.10;99.90;;;;;;5009509;28;20056;-87
2023/07/30 06:29:02;;;;;;;21.95;4.15;;;17.10;99.90;;;;;;4994337;28;20042;-87
2023/07/30 06:31:28;;;;;;;19.77;4.30;;;17.10;99.90;;;;;;4993773;28;20057;-88
2023/07/30 06:33:54;;;;;;;15.80;3.33;;;17.10;99.90;;;;;;4994341;28;20055;-87
2023/07/30 06:36:20;;;;;;;18.77;3.10;;;17.20;99.90;;;;;;4993802;28;20117;-87
2023/07/30 06:38:45;;;;;;;22.73;3.63;;;17.20;99.90;;;;;;5009480;28;20555;-87
2023/07/30 06:41:11;;;;;;;22.08;3.90;;;17.30;99.90;;;;;;5018023;28;20111;-87
2023/07/30 06:43:40;;;;;;;16.90;3.50;;;17.30;99.90;;;;;;5020446;28;20041;-87
2023/07/30 06:46:08;;;;;;;17.50;3.67;;;17.40;99.90;;;;;;4993555;28;20051;-87
2023/07/30 06:48:34;;;;;;;18.20;3.38;;;17.50;99.90;;;;;;5010774;28;20049;-87
2023/07/30 06:50:59;;;;;;;19.98;4.45;;;17.60;99.90;;;;;;4994127;28;20045;-88
2023/07/30 06:53:25;;;;;;;21.38;5.05;;;17.60;99.90;;;;;;5026982;28;20056;-92
2023/07/30 06:55:51;;;;;;;20.73;3.90;;;17.70;99.90;;;;;;4995424;28;20042;-92
2023/07/30 06:58:16;;;;;;;21.13;4.03;;;17.80;99.90;;;;;;4995237;28;20119;-87
2023/07/30 07:00:42;;;;;;;18.90;4.10;;;17.80;99.90;;;;;;4992794;28;20136;-87
2023/07/30 07:03:08;;;;;;;19.02;3.70;;;17.80;99.90;;;;;;5010925;28;20045;-87
2023/07/30 07:05:34;;;;;;;21.23;3.83;;;17.80;99.90;;;;;;5010042;28;20091;-88
2023/07/30 07:08:00;;;;;;;19.05;3.47;;;17.80;99.90;;;;;;4993612;28;20081;-87
2023/07/30 07:10:25;;;;;;;17.00;4.15;;;17.90;99.90;;;;;;5010385;28;20482;-88
2023/07/30 07:12:51;;;;;;;18.30;3.20;;;18.00;99.90;;;;;;5010198;28;20470;-88
2023/07/30 07:15:17;;;;;;;19.08;3.88;;;18.10;99.90;;;;;;5009841;28;20107;-87
2023/07/30 07:17:42;;;;;;;18.92;3.47;;;18.20;99.90;;;;;;5009036;28;20085;-87
2023/07/30 07:20:09;;;;;;;19.23;3.30;;;18.30;99.90;;;;;;5010653;28;20042;-87
2023/07/30 07:22:34;;;;;;;15.95;3.65;;;18.30;99.90;;;;;;4992712;28;20045;-87
2023/07/30 07:25:06;;;;;;;17.20;3.33;;;18.30;99.90;;;;;;5009684;28;21136;-86
2023/07/30 07:27:33;;;;;;;17.38;3.22;;;18.30;99.90;;;;;;5010533;28;20124;-87
2023/07/30 07:29:59;;;;;;;15.40;2.40;;;18.20;99.90;;;;;;5015548;28;20128;-87
2023/07/30 07:32:25;;;;;;;15.82;2.88;;;18.20;99.90;;;;;;5009180;28;20045;-88
2023/07/30 07:34:51;;;;;;;12.38;2.33;;;18.20;99.90;;;;;;5009557;28;20048;-88
2023/07/30 07:37:18;;;;;;;11.48;2.17;;;18.30;99.90;;;;;;5009977;28;20037;-88
2023/07/30 07:39:45;;;;;;;16.92;2.95;;;18.40;99.90;;;;;;5013027;28;20053;-87
2023/07/30 07:42:10;;;;;;;18.45;3.20;;;18.60;99.90;;;;;;5035521;28;20045;-88
2023/07/30 07:44:36;;;;;;;15.05;2.50;;;18.70;99.90;;;;;;5009966;28;20079;-88
2023/07/30 07:47:02;;;;;;;17.50;2.92;;;18.90;99.90;;;;;;5009978;28;20053;-87
2023/07/30 07:49:28;;;;;;;26.15;3.05;;;19.00;99.90;;;;;;5008860;28;20156;-88
2023/07/30 07:51:55;;;;;;;21.63;2.53;;;19.20;99.90;;;;;;5030693;28;20129;-90
2023/07/30 07:54:21;;;;;;;12.75;2.42;;;19.50;99.90;;;;;;4998448;28;20049;-89
2023/07/30 07:56:47;;;;;;;11.70;2.33;;;19.80;99.90;;;;;;5025567;28;20088;-91
2023/07/30 07:59:13;;;;;;;13.60;2.60;;;19.80;99.90;;;;;;5000405;28;20141;-90
2023/07/30 08:01:39;;;;;;;12.93;2.47;;;19.90;99.90;;;;;;5022049;28;20037;-89
2023/07/30 08:04:05;;;;;;;16.15;2.55;;;19.70;99.90;;;;;;5015807;28;20041;-87
2023/07/30 08:06:34;;;;;;;14.98;2.63;;;19.60;99.90;;;;;;5003459;28;20405;-89
2023/07/30 08:08:59;;;;;;;16.70;2.20;;;19.40;99.90;;;;;;4995243;28;20045;-89
2023/07/30 08:11:25;;;;;;;11.98;2.22;;;19.20;99.90;;;;;;5009236;28;20048;-88
2023/07/30 08:13:51;;;;;;;17.90;2.45;;;19.00;99.90;;;;;;4994910;28;20046;-87
2023/07/30 08:16:17;;;;;;;16.48;2.13;;;18.90;99.90;;;;;;4991952;28;20049;-87
2023/07/30 08:18:43;;;;;;;13.52;2.20;;;18.90;99.90;;;;;;5007493;28;20056;-88
2023/07/30 08:21:09;;;;;;;9.75;1.83;;;18.90;99.90;;;;;;5017376;28;20037;-88
2023/07/30 08:23:34;;;;;;;9.93;1.80;;;18.80;99.90;;;;;;5015512;28;20037;-88
2023/07/30 08:26:00;;;;;;;14.90;2.50;;;18.80;99.90;;;;;;5014302;28;20497;-88
2023/07/30 08:28:26;;;;;;;13.48;1.80;;;18.80;99.90;;;;;;5009855;28;20140;-88
2023/07/30 08:30:51;;;;;;;11.18;2.20;;;18.80;99.90;;;;;;5004395;28;20185;-87
2023/07/30 08:33:17;;;;;;;15.25;2.70;;;18.90;99.90;;;;;;5025171;28;20452;-88
2023/07/30 08:35:43;;;;;;;13.80;2.35;;;18.90;99.90;;;;;;5015133;28;20480;-88
2023/07/30 08:38:09;;;;;;;12.23;1.80;;;19.00;99.90;;;;;;5014524;28;20444;-87
2023/07/30 08:40:34;;;;;;;11.27;1.63;;;19.00;99.90;;;;;;5004792;28;20141;-88
2023/07/30 08:43:03;;;;;;;10.73;2.38;;;19.00;99.90;;;;;;5038939;28;20104;-89
2023/07/30 08:45:29;;;;;;;9.57;1.77;;;18.90;99.90;;;;;;5020346;28;20553;-88
2023/07/30 08:47:55;;;;;;;14.68;2.10;;;18.80;99.90;;;;;;5030215;28;20116;-88
2023/07/30 08:50:20;;;;;;;11.25;2.30;;;18.80;99.90;;;;;;5025108;28;20382;-88
2023/07/30 08:52:48;;;;;;;9.63;2.33;;;18.70;99.90;;;;;;5027184;28;20048;-88
2023/07/30 08:55:14;;;;;;;11.25;1.75;;;18.70;99.90;;;;;;5019313;28;20052;-88
2023/07/30 08:57:43;;;;;;;13.95;2.25;;;18.70;99.90;;;;;;5023157;28;20045;-88
2023/07/30 09:00:10;;;;;;;16.50;2.20;;;18.80;99.90;;;;;;5013022;28;20402;-88
2023/07/30 09:02:44;;;;;;;14.80;2.05;;;18.80;99.90;;;;;;5014558;28;20130;-87
2023/07/30 09:05:10;;;;;;;15.82;2.40;;;18.90;99.90;;;;;;4997382;28;20068;-88
2023/07/30 09:07:36;;;;;;;9.73;1.80;;;19.10;99.90;;;;;;5012436;28;20033;-89
2023/07/30 09:10:02;;;;;;;15.07;2.15;;;19.20;99.90;;;;;;4998784;28;20814;-90
2023/07/30 09:12:32;;;;;;;14.70;2.05;;;19.30;99.90;;;;;;5011321;28;20037;-88
2023/07/30 09:14:58;;;;;;;12.02;2.20;;;19.40;99.90;;;;;;5030997;28;20052;-88
2023/07/30 09:17:25;;;;;;;14.35;1.77;;;19.50;99.90;;;;;;5012958;28;20053;-88
2023/07/30 09:19:52;;;;;;;11.40;1.90;;;19.50;99.90;;;;;;4996124;28;20054;-88
2023/07/30 09:22:38;;;;;;;11.80;2.00;;;19.50;99.90;;;;;;5011112;28;20063;-89
2023/07/30 09:25:05;;;;;;;11.77;2.08;;;19.50;99.90;;;;;;4994804;28;20076;-88
2023/07/30 09:27:32;;;;;;;11.45;1.90;;;19.30;99.90;;;;;;5020899;28;20081;-90
2023/07/30 09:30:06;;;;;;;6.40;1.48;;;19.20;99.90;;;;;;5011016;28;20046;-89
2023/07/30 09:32:34;;;;;;;14.02;2.00;;;19.00;99.90;;;;;;5026996;28;20046;-89
2023/07/30 09:35:10;;;;;;;18.83;2.25;;;18.90;99.90;;;;;;5010913;28;20041;-89
2023/07/30 09:37:38;;;;;;;14.13;2.00;;;18.90;99.90;;;;;;5013038;28;20107;-90
2023/07/30 09:40:09;;;;;;;12.02;1.92;;;18.80;99.90;;;;;;4996595;28;20567;-89
2023/07/30 09:42:39;;;;;;;11.30;1.80;;;18.80;99.90;;;;;;5011821;28;20045;-90
2023/07/30 09:45:09;;;;;;;15.15;2.10;;;18.90;99.90;;;;;;5007640;28;20051;-88
2023/07/30 09:47:37;;;;;;;9.18;1.95;;;19.10;99.90;;;;;;5006433;28;20058;-90
2023/07/30 09:50:03;;;;;;;8.32;1.88;;;19.10;99.90;;;;;;5020673;28;20059;-89
2023/07/30 09:52:30;;;;;;;9.10;1.80;;;19.20;99.90;;;;;;5002048;28;20500;-89
2023/07/30 09:54:59;;;;;;;10.77;1.83;;;19.30;99.90;;;;;;5007360;28;20045;-90
2023/07/30 09:57:24;;;;;;;11.05;2.58;;;19.30;99.90;;;;;;4996310;28;20045;-90
2023/07/30 09:59:50;;;;;;;11.50;1.25;;;19.40;99.90;;;;;;5012394;28;20408;-89
2023/07/30 10:02:16;;;;;;;8.57;1.60;;;19.40;99.90;;;;;;5017803;28;20437;-89
2023/07/30 10:04:48;;;;;;;8.52;1.70;;;19.50;99.90;;;;;;5005291;28;20120;-88
2023/07/30 10:07:22;;;;;;;7.75;1.48;;;19.60;99.90;;;;;;5015923;28;20122;-89
2023/07/30 10:09:50;;;;;;;22.67;2.05;;;19.70;99.90;;;;;;5032009;28;20045;-90
2023/07/30 10:12:23;;;;;;;6.15;1.30;;;19.70;99.90;;;;;;5012200;28;20048;-91
2023/07/30 10:14:49;;;;;;;6.97;1.77;;;19.70;99.90;;;;;;5003995;28;20049;-89
2023/07/30 10:17:17;;;;;;;7.15;1.52;;;19.50;99.90;;;;;;4994435;28;20123;-89
2023/07/30 10:19:48;;;;;;;8.10;1.70;;;19.40;99.90;;;;;;5008366;28;20053;-89
2023/07/30 10:22:14;;;;;;;7.75;1.27;;;19.20;99.90;;;;;;5011170;28;20096;-89
2023/07/30 10:24:57;;;;;;;9.20;1.50;;;19.20;99.90;;;;;;5017467;28;20057;-88
2023/07/30 10:27:34;;;;;;;6.07;1.05;;;19.20;99.90;;;;;;5008092;28;20037;-89
2023/07/30 10:30:19;;;;;;;6.95;1.10;;;19.10;99.90;;;;;;5031697;28;20041;-86
2023/07/30 10:32:57;;;;;;;7.13;1.30;;;19.30;99.90;;;;;;5022305;28;20413;-88
2023/07/30 10:35:41;;;;;;;8.38;1.80;;;19.60;99.90;;;;;;5008227;28;20046;-88
2023/07/30 10:38:14;;;;;;;6.00;1.35;;;20.00;99.90;;;;;;5013119;28;20130;-89
2023/07/30 10:40:40;;;;;;;7.18;1.40;;;20.30;99.90;;;;;;5010738;28;20049;-88
2023/07/30 10:43:17;;;;;;;9.45;1.63;;;20.20;99.90;;;;;;4997549;28;20049;-87
2023/07/30 10:45:53;;;;;;;9.38;1.42;;;19.80;99.90;;;;;;5014936;28;20119;-85
2023/07/30 10:48:18;;;;;;;8.75;1.40;;;19.40;99.90;;;;;;5033408;28;20081;-85
2023/07/30 10:50:48;;;;;;;8.10;1.50;;;19.00;99.90;;;;;;5004434;28;20044;-85
2023/07/30 10:53:16;;;;;;;9.80;1.70;;;18.80;99.90;;;;;;5010545;28;20049;-86
2023/07/30 10:55:42;;;;;;;12.20;1.52;;;18.50;99.90;;;;;;5028813;28;20041;-85
2023/07/30 10:58:08;;;;;;;9.48;1.80;;;18.50;99.90;;;;;;5011802;28;20081;-85
2023/07/30 11:00:33;;;;;;;7.97;1.60;;;18.60;99.90;;;;;;4992757;28;20727;-86
2023/07/30 11:02:59;;;;;;;10.65;1.70;;;18.70;99.90;;;;;;5028277;28;20083;-87
2023/07/30 11:05:25;;;;;;;9.10;1.65;;;18.80;99.90;;;;;;4993826;28;20049;-86
2023/07/30 11:07:52;;;;;;;11.27;2.20;;;18.70;99.90;;;;;;5014425;28;20037;-88
2023/07/30 11:10:18;;;;;;;12.93;2.40;;;18.90;99.90;;;;;;4999376;28;20057;-87
2023/07/30 11:12:43;;;;;;;12.00;1.95;;;19.20;99.90;;;;;;5017940;28;20049;-88
2023/07/30 11:15:10;;;;;;;12.88;2.33;;;19.40;99.90;;;;;;5012304;28;20041;-89
2023/07/30 11:17:35;;;;;;;10.95;1.70;;;19.70;99.90;;;;;;5006228;28;20055;-87
2023/07/30 11:20:02;;;;;;;15.43;2.10;;;19.70;99.90;;;;;;5029165;28;20424;-89
2023/07/30 11:22:32;;;;;;;9.75;2.25;;;19.80;99.90;;;;;;5018573;28;20111;-88
2023/07/30 11:24:58;;;;;;;10.00;2.03;;;19.80;99.90;;;;;;5012514;28;20128;-88
2023/07/30 11:27:24;;;;;;;10.75;1.83;;;20.20;99.90;;;;;;5020627;28;20144;-91
2023/07/30 11:29:57;;;;;;;13.57;2.38;;;20.40;99.90;;;;;;5032200;28;20080;-90
2023/07/30 11:32:25;;;;;;;16.58;2.05;;;20.70;99.90;;;;;;5038608;28;20033;-89
2023/07/30 11:34:55;;;;;;;11.25;2.03;;;20.90;99.90;;;;;;5028262;28;20037;-89
2023/07/30 11:37:21;;;;;;;13.15;2.35;;;21.00;99.90;;;;;;5045752;28;20046;-90
2023/07/30 11:39:48;;;;;;;9.95;1.67;;;21.10;99.90;;;;;;5026041;28;20045;-88
2023/07/30 11:42:14;;;;;;;14.10;2.05;;;21.30;99.90;;;;;;5045931;28;20098;-89
2023/07/30 11:44:40;;;;;;;10.90;2.13;;;21.40;99.90;;;;;;5027575;28;20037;-89
2023/07/30 11:47:11;;;;;;;12.60;1.95;;;21.40;99.90;;;;;;5028290;28;20433;-89
2023/07/30 11:49:37;;;;;;;12.45;1.95;;;21.30;99.90;;;;;;5027576;28;20045;-89
2023/07/30 11:52:08;;;;;;;13.20;2.00;;;21.10;99.90;;;;;;5045883;28;20051;-91
2023/07/30 11:54:34;;;;;;;13.00;1.88;;;20.90;99.90;;;;;;5007564;28;20045;-90
2023/07/30 11:57:00;;;;;;;12.45;2.63;;;20.80;99.90;;;;;;5040468;28;20033;-88
2023/07/30 11:59:25;;;;;;;14.98;1.95;;;20.90;99.90;;;;;;5027395;28;20523;-85
2023/07/30 12:01:52;;;;;;;10.98;1.73;;;21.10;99.90;;;;;;5008600;28;20087;-87
2023/07/30 12:04:18;;;;;;;8.57;1.67;;;21.30;99.90;;;;;;5026079;28;20076;-88
2023/07/30 12:06:45;;;;;;;8.27;1.67;;;21.50;99.90;;;;;;5045412;28;20045;-90
2023/07/30 12:09:15;;;;;;;10.02;1.80;;;21.70;99.90;;;;;;5027015;28;20116;-90
2023/07/30 12:11:58;;;;;;;8.82;1.50;;;21.70;99.90;;;;;;5026892;28;20134;-87
2023/07/30 12:14:44;;;;;;;12.45;2.00;;;21.40;99.90;;;;;;5017045;28;20045;-92
2023/07/30 12:17:10;;;;;;;12.27;1.60;;;20.90;99.90;;;;;;5030617;28;20163;-85
2023/07/30 12:19:36;;;;;;;15.60;1.92;;;20.50;99.90;;;;;;4999526;28;20042;-86
2023/07/30 12:22:02;;;;;;;10.32;1.75;;;20.10;99.90;;;;;;5035109;28;20044;-87
2023/07/30 12:24:28;;;;;;;11.50;1.77;;;19.80;99.90;;;;;;5011543;28;20412;-86
2023/07/30 12:26:53;;;;;;;16.08;2.08;;;19.60;99.90;;;;;;5013757;28;20512;-86
2023/07/30 12:29:19;;;;;;;8.43;1.58;;;19.40;99.90;;;;;;5014255;28;20131;-87
2023/07/30 12:31:45;;;;;;;10.45;1.75;;;19.50;99.90;;;;;;4994116;28;20053;-87
2023/07/30 12:34:12;;;;;;;7.82;1.35;;;19.60;99.90;;;;;;5030840;28;20045;-86
2023/07/30 12:36:38;;;;;;;8.07;1.42;;;19.70;99.90;;;;;;5026850;28;20106;-86